Time;durP1;ratioP1;P1;durP2;ratioP2;P2;SDS_P1;SDS_P2;PMS_P1;PMS_P2;Temp;Humidity;BMP_temperature;BMP_pressure;BME280_temperature;BME280_humidity;BME280_pressure;Samples;Min_cycle;Max_cycle;Signal;HPM_P1;HPM_P2
2023/09/09 00:02:12;;;;;;;4.35;3.92;;;;;;;;;;5100533;28;20213;-75
2023/09/09 00:04:40;;;;;;;3.97;3.58;;;;;;;;;;5100777;28;20203;-75
2023/09/09 00:07:11;;;;;;;4.55;3.95;;;;;;;;;;5100923;28;20210;-74
2023/09/09 00:09:41;;;;;;;4.70;4.25;;;;;;;;;;5100344;28;20207;-73
2023/09/09 00:12:09;;;;;;;4.13;3.75;;;;;;;;;;5100347;28;20261;-75
2023/09/09 00:14:37;;;;;;;4.05;3.72;;;;;;;;;;5100426;28;20543;-74
2023/09/09 00:17:05;;;;;;;5.30;3.83;;;;;;;;;;5100456;28;20219;-74
2023/09/09 00:19:34;;;;;;;3.83;3.53;;;;;;;;;;5100601;28;20237;-74
2023/09/09 00:22:02;;;;;;;3.95;3.60;;;;;;;;;;5100623;28;20213;-74
2023/09/09 00:24:31;;;;;;;5.60;3.70;;;;;;;;;;5100406;28;20734;-74
2023/09/09 00:27:00;;;;;;;6.63;3.67;;;;;;;;;;5100204;28;20206;-74
2023/09/09 00:29:29;;;;;;;5.68;4.25;;;;;;;;;;5100051;28;20202;-74
2023/09/09 00:31:57;;;;;;;5.15;3.83;;;;;;;;;;5099810;28;20730;-74
2023/09/09 00:34:25;;;;;;;4.40;4.03;;;;;;;;;;5089026;28;20202;-74
2023/09/09 00:36:53;;;;;;;4.57;3.70;;;;;;;;;;5100391;28;20210;-74
2023/09/09 00:39:21;;;;;;;4.07;3.50;;;;;;;;;;5100472;28;20226;-74
2023/09/09 00:41:51;;;;;;;4.90;3.80;;;;;;;;;;5099792;28;20225;-74
2023/09/09 00:44:19;;;;;;;7.13;3.70;;;;;;;;;;5099847;28;20215;-73
2023/09/09 00:46:47;;;;;;;4.80;3.67;;;;;;;;;;5099694;28;20208;-74
2023/09/09 00:49:15;;;;;;;6.33;4.20;;;;;;;;;;5099915;28;20223;-74
2023/09/09 00:51:44;;;;;;;4.97;3.73;;;;;;;;;;5099853;28;20282;-74
2023/09/09 00:54:12;;;;;;;5.03;3.60;;;;;;;;;;5099830;28;20214;-74
2023/09/09 00:56:40;;;;;;;3.93;3.63;;;;;;;;;;5099769;28;20293;-73
2023/09/09 00:59:12;;;;;;;6.00;3.50;;;;;;;;;;5097474;28;20247;-74
2023/09/09 01:01:40;;;;;;;4.13;3.53;;;;;;;;;;5099079;28;20571;-74
2023/09/09 01:04:08;;;;;;;4.53;3.43;;;;;;;;;;5099728;28;20210;-73
2023/09/09 01:06:36;;;;;;;4.53;3.60;;;;;;;;;;5099609;28;20212;-72
2023/09/09 01:09:08;;;;;;;5.53;3.70;;;;;;;;;;5099297;28;20654;-71
2023/09/09 01:11:36;;;;;;;4.00;3.67;;;;;;;;;;5099550;28;20643;-73
2023/09/09 01:14:04;;;;;;;3.93;3.40;;;;;;;;;;5100250;28;20212;-74
2023/09/09 01:16:34;;;;;;;4.10;3.80;;;;;;;;;;5099080;28;20201;-73
2023/09/09 01:19:02;;;;;;;3.77;3.40;;;;;;;;;;5099246;28;20225;-74
2023/09/09 01:21:32;;;;;;;3.60;3.30;;;;;;;;;;5099244;28;20228;-74
2023/09/09 01:24:02;;;;;;;5.97;3.45;;;;;;;;;;5098956;28;20662;-73
2023/09/09 01:26:30;;;;;;;3.53;3.22;;;;;;;;;;5098946;28;20203;-72
2023/09/09 01:28:58;;;;;;;5.65;3.72;;;;;;;;;;5099027;28;20195;-73
2023/09/09 01:31:26;;;;;;;4.87;3.43;;;;;;;;;;5098239;28;20217;-74
2023/09/09 01:33:56;;;;;;;4.43;3.47;;;;;;;;;;5098420;28;20208;-74
2023/09/09 01:36:25;;;;;;;4.53;3.60;;;;;;;;;;5098589;28;20264;-75
2023/09/09 01:38:53;;;;;;;3.53;3.23;;;;;;;;;;5098413;28;20683;-75
2023/09/09 01:41:23;;;;;;;5.57;3.47;;;;;;;;;;5092598;28;20247;-74
2023/09/09 01:43:51;;;;;;;7.33;3.30;;;;;;;;;;5098260;28;20226;-73
2023/09/09 01:46:19;;;;;;;4.97;3.67;;;;;;;;;;5099187;28;20215;-74
2023/09/09 01:48:47;;;;;;;4.00;3.60;;;;;;;;;;5098849;28;20249;-74
2023/09/09 01:51:15;;;;;;;4.10;3.70;;;;;;;;;;5098179;28;20215;-75
2023/09/09 01:53:43;;;;;;;5.63;3.60;;;;;;;;;;5097914;28;20595;-76
2023/09/09 01:56:11;;;;;;;7.27;3.70;;;;;;;;;;5098401;28;20200;-75
2023/09/09 01:58:40;;;;;;;3.93;3.50;;;;;;;;;;5098117;28;20239;-76
2023/09/09 02:01:12;;;;;;;4.80;3.43;;;;;;;;;;5091033;28;20274;-76
2023/09/09 02:03:40;;;;;;;3.80;3.50;;;;;;;;;;5098310;28;20281;-75
2023/09/09 02:06:09;;;;;;;7.07;3.73;;;;;;;;;;5098554;28;20199;-75
2023/09/09 02:08:37;;;;;;;5.37;3.70;;;;;;;;;;5097768;28;20654;-75
2023/09/09 02:11:05;;;;;;;4.43;3.33;;;;;;;;;;5097727;28;20364;-74
2023/09/09 02:13:33;;;;;;;3.90;3.50;;;;;;;;;;5097867;28;20203;-74
2023/09/09 02:16:07;;;;;;;4.13;3.73;;;;;;;;;;5097886;28;20212;-75
2023/09/09 02:18:37;;;;;;;3.90;3.10;;;;;;;;;;5097772;28;20235;-75
2023/09/09 02:21:05;;;;;;;3.93;3.53;;;;;;;;;;5096104;28;20224;-75
2023/09/09 02:23:34;;;;;;;3.90;3.53;;;;;;;;;;5097712;28;20198;-75
2023/09/09 02:26:02;;;;;;;3.73;3.33;;;;;;;;;;5097932;28;20283;-74
2023/09/09 02:28:31;;;;;;;3.57;3.27;;;;;;;;;;5097575;28;20671;-76
2023/09/09 02:31:00;;;;;;;5.40;3.80;;;;;;;;;;5097360;28;20219;-75
2023/09/09 02:33:29;;;;;;;4.27;3.60;;;;;;;;;;5095440;28;20290;-76
2023/09/09 02:35:59;;;;;;;3.60;3.33;;;;;;;;;;5097275;28;20569;-76
2023/09/09 02:38:27;;;;;;;4.47;3.50;;;;;;;;;;5097618;28;20204;-75
2023/09/09 02:40:55;;;;;;;3.37;3.07;;;;;;;;;;5098221;28;20217;-76
2023/09/09 02:43:23;;;;;;;4.37;3.73;;;;;;;;;;5097889;28;20237;-75
2023/09/09 02:45:51;;;;;;;4.10;3.50;;;;;;;;;;5097613;28;20214;-76
2023/09/09 02:48:20;;;;;;;3.97;3.57;;;;;;;;;;5096945;28;20221;-74
2023/09/09 02:50:52;;;;;;;3.67;3.43;;;;;;;;;;5096999;28;20282;-74
2023/09/09 02:53:22;;;;;;;4.33;3.33;;;;;;;;;;5099426;28;20565;-75
2023/09/09 02:55:50;;;;;;;4.73;4.33;;;;;;;;;;5101652;28;20613;-75
2023/09/09 02:58:18;;;;;;;4.77;3.80;;;;;;;;;;5101325;28;20231;-74
2023/09/09 03:00:47;;;;;;;4.33;3.87;;;;;;;;;;5100239;28;20593;-74
2023/09/09 03:03:16;;;;;;;4.80;4.00;;;;;;;;;;5101692;28;20213;-73
2023/09/09 03:05:44;;;;;;;4.37;3.50;;;;;;;;;;5101429;28;20207;-75
2023/09/09 03:08:14;;;;;;;7.07;3.83;;;;;;;;;;5099001;28;20205;-75
2023/09/09 03:10:42;;;;;;;5.23;3.73;;;;;;;;;;5101169;28;20639;-74
2023/09/09 03:13:10;;;;;;;5.33;3.67;;;;;;;;;;5101209;28;20206;-74
2023/09/09 03:15:38;;;;;;;3.87;3.57;;;;;;;;;;5101189;28;20234;-74
2023/09/09 03:18:08;;;;;;;3.60;3.30;;;;;;;;;;5101100;28;20228;-75
2023/09/09 03:20:36;;;;;;;5.60;3.90;;;;;;;;;;5101273;28;20270;-74
2023/09/09 03:23:04;;;;;;;6.00;4.63;;;;;;;;;;5100970;28;20196;-75
2023/09/09 03:25:34;;;;;;;5.00;3.60;;;;;;;;;;5098873;28;20207;-74
2023/09/09 03:28:02;;;;;;;3.27;2.97;;;;;;;;;;5099918;28;20204;-74
2023/09/09 03:30:53;;;;;;;3.67;3.37;;;;;;;;;;5100860;28;20224;-74
2023/09/09 03:33:21;;;;;;;6.13;3.87;;;;;;;;;;5099424;28;20204;-74
2023/09/09 03:35:49;;;;;;;4.20;3.80;;;;;;;;;;5100804;28;20211;-74
2023/09/09 03:38:17;;;;;;;5.97;3.93;;;;;;;;;;5100938;28;20200;-74
2023/09/09 03:40:47;;;;;;;5.00;3.70;;;;;;;;;;5097932;28;20228;-74
2023/09/09 03:43:15;;;;;;;6.97;4.00;;;;;;;;;;5098666;28;20201;-75
2023/09/09 03:45:43;;;;;;;3.60;3.30;;;;;;;;;;5100582;28;20259;-75
2023/09/09 03:48:14;;;;;;;6.20;3.90;;;;;;;;;;5097800;28;20200;-75
2023/09/09 03:50:42;;;;;;;6.13;4.30;;;;;;;;;;5100161;28;20218;-74
2023/09/09 03:53:11;;;;;;;4.07;3.67;;;;;;;;;;5100160;28;20205;-74
2023/09/09 03:55:39;;;;;;;4.23;3.67;;;;;;;;;;5100716;28;20281;-74
2023/09/09 03:58:08;;;;;;;4.30;3.90;;;;;;;;;;5100384;28;20227;-74
2023/09/09 04:00:37;;;;;;;6.23;4.33;;;;;;;;;;5099936;28;20285;-75
2023/09/09 04:03:05;;;;;;;4.47;4.07;;;;;;;;;;5100523;28;20558;-76
2023/09/09 04:05:33;;;;;;;6.20;4.33;;;;;;;;;;5100953;28;20204;-74
2023/09/09 04:08:03;;;;;;;5.80;3.80;;;;;;;;;;5099983;28;20675;-75
2023/09/09 04:10:31;;;;;;;6.37;3.77;;;;;;;;;;5100307;28;20234;-74
2023/09/09 04:12:59;;;;;;;4.70;3.70;;;;;;;;;;5100212;28;20204;-75
2023/09/09 04:15:29;;;;;;;4.63;3.70;;;;;;;;;;5097532;28;20201;-75
2023/09/09 04:17:57;;;;;;;7.03;3.50;;;;;;;;;;5099923;28;20198;-74
2023/09/09 04:20:25;;;;;;;4.87;3.53;;;;;;;;;;5099561;28;20257;-75
2023/09/09 04:22:53;;;;;;;6.73;4.10;;;;;;;;;;5100365;28;20210;-74
2023/09/09 04:25:21;;;;;;;6.20;3.83;;;;;;;;;;5100192;28;20202;-74
2023/09/09 04:27:49;;;;;;;6.07;4.53;;;;;;;;;;5100125;28;20213;-74
2023/09/09 04:30:17;;;;;;;7.23;4.43;;;;;;;;;;5099154;28;20225;-74
2023/09/09 04:32:46;;;;;;;5.83;4.80;;;;;;;;;;5100061;28;20295;-74
2023/09/09 04:35:14;;;;;;;6.33;3.90;;;;;;;;;;5097615;28;20205;-74
2023/09/09 04:37:42;;;;;;;5.10;4.20;;;;;;;;;;5092163;28;20205;-76
2023/09/09 04:40:11;;;;;;;6.77;4.23;;;;;;;;;;5099959;28;20279;-75
2023/09/09 04:42:39;;;;;;;6.13;4.37;;;;;;;;;;5100149;28;20213;-75
2023/09/09 04:45:10;;;;;;;10.60;4.33;;;;;;;;;;5099908;28;20269;-75
2023/09/09 04:47:38;;;;;;;7.50;4.00;;;;;;;;;;5099866;28;20219;-75
2023/09/09 04:50:08;;;;;;;4.90;4.13;;;;;;;;;;5099756;28;20576;-74
2023/09/09 04:52:36;;;;;;;12.33;4.67;;;;;;;;;;5099942;28;20212;-74
2023/09/09 04:55:04;;;;;;;5.07;4.03;;;;;;;;;;5099907;28;20209;-75
2023/09/09 04:57:32;;;;;;;5.57;4.07;;;;;;;;;;5099729;28;20286;-74
2023/09/09 05:00:03;;;;;;;5.20;4.70;;;;;;;;;;5099529;28;20306;-75
2023/09/09 05:02:31;;;;;;;4.80;3.80;;;;;;;;;;5099943;28;20201;-75
2023/09/09 05:04:59;;;;;;;5.83;4.13;;;;;;;;;;5099681;28;20576;-76
2023/09/09 05:07:31;;;;;;;5.53;4.17;;;;;;;;;;5099633;28;20209;-74
2023/09/09 05:09:59;;;;;;;8.17;4.10;;;;;;;;;;5099500;28;20235;-75
2023/09/09 05:12:27;;;;;;;4.83;4.10;;;;;;;;;;5099691;28;20208;-75
2023/09/09 05:14:55;;;;;;;4.37;3.93;;;;;;;;;;5098780;28;20212;-75
2023/09/09 05:17:23;;;;;;;6.87;4.33;;;;;;;;;;5099265;28;20262;-75
2023/09/09 05:19:51;;;;;;;6.33;4.73;;;;;;;;;;5099363;28;20205;-75
2023/09/09 05:22:19;;;;;;;8.60;4.80;;;;;;;;;;5099446;28;20210;-75
2023/09/09 05:24:49;;;;;;;7.47;4.73;;;;;;;;;;5099349;28;20236;-74
2023/09/09 05:27:17;;;;;;;8.80;5.13;;;;;;;;;;5099072;28;20207;-75
2023/09/09 05:29:45;;;;;;;9.97;5.03;;;;;;;;;;5098930;28;20231;-74
2023/09/09 05:32:13;;;;;;;7.93;4.83;;;;;;;;;;5099023;28;20202;-75
2023/09/09 05:34:41;;;;;;;7.57;4.77;;;;;;;;;;5099258;28;20293;-74
2023/09/09 05:37:09;;;;;;;8.43;5.07;;;;;;;;;;5098866;28;20213;-74
2023/09/09 05:39:37;;;;;;;6.33;4.90;;;;;;;;;;5098814;28;20206;-75
2023/09/09 05:42:06;;;;;;;8.43;4.70;;;;;;;;;;5098724;28;20316;-75
2023/09/09 05:44:35;;;;;;;12.17;4.57;;;;;;;;;;5098649;28;20618;-75
2023/09/09 05:47:03;;;;;;;6.47;4.13;;;;;;;;;;5099040;28;20205;-74
2023/09/09 05:49:33;;;;;;;6.80;5.07;;;;;;;;;;5099245;28;20212;-73
2023/09/09 05:52:07;;;;;;;7.60;4.07;;;;;;;;;;5099099;28;20205;-75
2023/09/09 05:54:35;;;;;;;6.80;4.47;;;;;;;;;;5098447;28;20217;-75
2023/09/09 05:57:03;;;;;;;6.10;4.00;;;;;;;;;;5098572;28;20211;-72
2023/09/09 05:59:32;;;;;;;4.87;4.30;;;;;;;;;;5098030;28;20688;-72
2023/09/09 06:02:00;;;;;;;5.20;4.00;;;;;;;;;;5093498;28;20585;-72
2023/09/09 06:04:30;;;;;;;7.87;4.30;;;;;;;;;;5097911;28;20638;-72
2023/09/09 06:06:58;;;;;;;7.37;4.07;;;;;;;;;;5098016;28;20200;-72
2023/09/09 06:09:26;;;;;;;6.43;4.87;;;;;;;;;;5097994;28;20200;-72
2023/09/09 06:11:54;;;;;;;5.53;4.03;;;;;;;;;;5097761;28;20224;-73
2023/09/09 06:14:22;;;;;;;3.90;3.50;;;;;;;;;;5097748;28;20262;-72
2023/09/09 06:16:51;;;;;;;4.70;4.27;;;;;;;;;;5097688;28;20197;-72
2023/09/09 06:19:19;;;;;;;6.43;4.50;;;;;;;;;;5097905;28;20202;-73
2023/09/09 06:21:48;;;;;;;7.80;4.53;;;;;;;;;;5097701;28;20233;-72
2023/09/09 06:24:16;;;;;;;5.07;4.00;;;;;;;;;;5097084;28;20227;-74
2023/09/09 06:26:44;;;;;;;4.83;4.33;;;;;;;;;;5097372;28;20200;-72
2023/09/09 06:29:12;;;;;;;7.10;4.90;;;;;;;;;;5096409;28;20203;-74
2023/09/09 06:31:41;;;;;;;7.33;3.93;;;;;;;;;;5097401;28;20230;-73
2023/09/09 06:34:12;;;;;;;4.63;3.93;;;;;;;;;;5094310;28;20195;-72
2023/09/09 06:36:40;;;;;;;4.57;3.77;;;;;;;;;;5097277;28;20205;-73
2023/09/09 06:39:10;;;;;;;6.73;4.27;;;;;;;;;;5095053;28;20199;-73
2023/09/09 06:41:39;;;;;;;6.30;4.33;;;;;;;;;;5097401;28;20225;-73
2023/09/09 06:44:07;;;;;;;6.27;4.43;;;;;;;;;;5086774;28;20292;-74
2023/09/09 06:46:35;;;;;;;5.37;4.23;;;;;;;;;;5097283;28;20564;-74
2023/09/09 06:49:05;;;;;;;6.43;4.63;;;;;;;;;;5097184;28;20265;-72
2023/09/09 06:51:35;;;;;;;7.77;4.63;;;;;;;;;;5094390;28;20217;-72
2023/09/09 06:54:03;;;;;;;6.23;4.57;;;;;;;;;;5096908;28;20545;-72
2023/09/09 06:56:31;;;;;;;5.47;4.57;;;;;;;;;;5094476;28;20568;-71
2023/09/09 06:58:59;;;;;;;7.83;4.20;;;;;;;;;;5096938;28;20262;-73
2023/09/09 07:01:27;;;;;;;6.17;4.23;;;;;;;;;;5092326;28;20229;-72
2023/09/09 07:03:55;;;;;;;8.47;4.67;;;;;;;;;;5097096;28;20206;-72
2023/09/09 07:06:23;;;;;;;7.90;4.90;;;;;;;;;;5097480;28;20212;-71
2023/09/09 07:08:53;;;;;;;5.73;4.43;;;;;;;;;;5097515;28;20213;-73
2023/09/09 07:11:21;;;;;;;7.23;3.93;;;;;;;;;;5096804;28;20264;-71
2023/09/09 07:13:49;;;;;;;5.00;4.40;;;;;;;;;;5096895;28;20561;-71
2023/09/09 07:16:17;;;;;;;6.57;4.23;;;;;;;;;;5096585;28;20611;-71
2023/09/09 07:18:45;;;;;;;6.13;4.20;;;;;;;;;;5095235;28;20614;-70
2023/09/09 07:21:13;;;;;;;6.67;4.00;;;;;;;;;;5097122;28;20264;-72
2023/09/09 07:23:41;;;;;;;5.77;3.83;;;;;;;;;;5090138;28;20208;-72
2023/09/09 07:26:11;;;;;;;5.37;3.40;;;;;;;;;;5093320;28;20250;-74
2023/09/09 07:28:39;;;;;;;4.10;3.60;;;;;;;;;;5097066;28;20993;-73
2023/09/09 07:31:07;;;;;;;5.97;4.27;;;;;;;;;;5093871;28;20216;-69
2023/09/09 07:33:36;;;;;;;5.13;4.20;;;;;;;;;;5090492;28;20260;-71
2023/09/09 07:36:04;;;;;;;4.57;3.90;;;;;;;;;;5096690;28;20201;-71
2023/09/09 07:38:32;;;;;;;4.87;4.17;;;;;;;;;;5097921;28;20213;-70
2023/09/09 07:41:01;;;;;;;5.90;3.87;;;;;;;;;;5101316;28;20229;-70
2023/09/09 07:43:30;;;;;;;4.50;3.63;;;;;;;;;;5101081;28;20226;-70
2023/09/09 07:45:59;;;;;;;4.53;4.00;;;;;;;;;;5101100;28;20211;-71
2023/09/09 07:48:27;;;;;;;6.73;3.93;;;;;;;;;;5101329;28;20241;-72
2023/09/09 07:50:56;;;;;;;6.77;3.57;;;;;;;;;;5100874;28;20287;-72
2023/09/09 07:53:24;;;;;;;4.63;3.57;;;;;;;;;;5100932;28;20213;-71
2023/09/09 07:55:52;;;;;;;5.47;3.93;;;;;;;;;;5100891;28;20211;-73
2023/09/09 07:58:20;;;;;;;7.37;4.23;;;;;;;;;;5100490;28;20266;-69
2023/09/09 08:00:57;;;;;;;4.67;3.40;;;;;;;;;;5100374;28;20593;-72
2023/09/09 08:03:26;;;;;;;4.73;3.40;;;;;;;;;;5100490;28;20225;-72
2023/09/09 08:05:55;;;;;;;5.13;3.90;;;;;;;;;;5097482;28;20235;-72
2023/09/09 08:08:24;;;;;;;7.40;4.00;;;;;;;;;;5100327;28;20208;-71
2023/09/09 08:10:52;;;;;;;8.63;4.30;;;;;;;;;;5098377;28;20247;-70
2023/09/09 08:13:20;;;;;;;5.30;4.00;;;;;;;;;;5090195;28;20197;-72
2023/09/09 08:15:48;;;;;;;5.30;3.63;;;;;;;;;;5100231;28;20208;-71
2023/09/09 08:18:17;;;;;;;4.55;4.03;;;;;;;;;;5100625;28;20218;-70
2023/09/09 08:20:49;;;;;;;6.43;4.05;;;;;;;;;;5100366;28;20221;-71
2023/09/09 08:23:17;;;;;;;4.37;3.67;;;;;;;;;;5105277;28;20223;-71
2023/09/09 08:25:45;;;;;;;4.70;3.47;;;;;;;;;;5099053;28;20228;-70
2023/09/09 08:28:13;;;;;;;3.70;3.40;;;;;;;;;;5100183;28;20287;-70
2023/09/09 08:30:45;;;;;;;4.20;3.90;;;;;;;;;;5099728;28;20243;-70
2023/09/09 08:33:13;;;;;;;4.15;3.60;;;;;;;;;;5099910;28;20205;-71
2023/09/09 08:35:42;;;;;;;5.50;4.22;;;;;;;;;;5100092;28;20205;-71
2023/09/09 08:38:10;;;;;;;4.93;4.38;;;;;;;;;;5098501;28;20193;-71
2023/09/09 08:40:41;;;;;;;8.38;4.30;;;;;;;;;;5101215;28;20231;-70
2023/09/09 08:43:13;;;;;;;5.07;3.85;;;;;;;;;;5100047;28;20324;-71
2023/09/09 08:45:43;;;;;;;4.93;3.70;;;;;;;;;;5099600;28;20211;-70
2023/09/09 08:48:13;;;;;;;4.10;3.70;;;;;;;;;;5100458;28;20204;-71
2023/09/09 08:50:43;;;;;;;4.28;3.88;;;;;;;;;;5088130;28;20655;-71
2023/09/09 08:53:12;;;;;;;4.38;3.97;;;;;;;;;;5099753;28;20289;-71
2023/09/09 08:55:41;;;;;;;4.43;3.85;;;;;;;;;;5099786;28;20211;-71
2023/09/09 08:58:09;;;;;;;4.05;3.65;;;;;;;;;;5099706;28;20265;-71
2023/09/09 09:00:39;;;;;;;4.35;3.75;;;;;;;;;;5099140;28;20773;-72
2023/09/09 09:03:07;;;;;;;6.97;4.07;;;;;;;;;;5100451;28;20256;-74
2023/09/09 09:05:36;;;;;;;5.00;3.88;;;;;;;;;;5094627;28;20215;-74
2023/09/09 09:08:08;;;;;;;4.82;4.05;;;;;;;;;;5099069;28;20213;-74
2023/09/09 09:10:36;;;;;;;4.32;3.92;;;;;;;;;;5099131;28;20225;-73
2023/09/09 09:13:05;;;;;;;6.50;3.60;;;;;;;;;;5103870;28;20208;-73
2023/09/09 09:15:35;;;;;;;3.83;3.40;;;;;;;;;;5099294;28;20618;-75
2023/09/09 09:18:04;;;;;;;4.18;3.78;;;;;;;;;;5099368;28;20208;-74
2023/09/09 09:20:33;;;;;;;4.05;3.58;;;;;;;;;;5099638;28;20274;-74
2023/09/09 09:23:02;;;;;;;8.77;3.70;;;;;;;;;;5096851;28;20258;-73
2023/09/09 09:25:36;;;;;;;4.65;3.78;;;;;;;;;;5090906;28;20201;-74
2023/09/09 09:28:04;;;;;;;7.70;3.85;;;;;;;;;;5099207;28;20205;-74
2023/09/09 09:30:33;;;;;;;3.63;3.33;;;;;;;;;;5098966;28;20236;-73
2023/09/09 09:33:01;;;;;;;3.65;3.33;;;;;;;;;;5099992;28;20202;-74
2023/09/09 09:35:30;;;;;;;3.30;3.05;;;;;;;;;;5099366;28;20216;-74
2023/09/09 09:37:58;;;;;;;5.47;3.53;;;;;;;;;;5098907;28;20204;-73
2023/09/09 09:40:26;;;;;;;3.70;3.40;;;;;;;;;;5096031;28;20221;-74
2023/09/09 09:42:56;;;;;;;4.60;3.60;;;;;;;;;;5096887;28;20617;-74
2023/09/09 09:45:25;;;;;;;4.00;3.70;;;;;;;;;;5097445;28;20205;-73
2023/09/09 09:47:54;;;;;;;7.18;3.70;;;;;;;;;;5096864;28;20206;-74
2023/09/09 09:50:25;;;;;;;4.40;3.22;;;;;;;;;;5098137;28;20288;-73
2023/09/09 09:52:58;;;;;;;3.97;3.67;;;;;;;;;;5098502;28;20567;-74
2023/09/09 09:55:26;;;;;;;3.80;3.40;;;;;;;;;;5098314;28;20250;-74
2023/09/09 09:57:55;;;;;;;8.40;3.97;;;;;;;;;;5098252;28;20596;-70
2023/09/09 10:00:26;;;;;;;5.40;3.30;;;;;;;;;;5098039;28;20227;-73
2023/09/09 10:02:55;;;;;;;4.38;3.80;;;;;;;;;;5098239;28;20247;-74
2023/09/09 10:05:23;;;;;;;4.65;3.47;;;;;;;;;;5098248;28;20233;-76
2023/09/09 10:07:52;;;;;;;4.03;3.70;;;;;;;;;;5098471;28;20205;-75
2023/09/09 10:10:22;;;;;;;3.70;3.22;;;;;;;;;;5098441;28;20246;-74
2023/09/09 10:12:52;;;;;;;4.45;3.47;;;;;;;;;;5098580;28;20205;-73
2023/09/09 10:15:21;;;;;;;5.55;4.22;;;;;;;;;;5098154;28;20205;-73
2023/09/09 10:17:52;;;;;;;5.05;3.60;;;;;;;;;;5098204;28;20657;-74
2023/09/09 10:20:20;;;;;;;5.88;3.63;;;;;;;;;;5098308;28;20266;-73
2023/09/09 10:22:49;;;;;;;4.63;3.70;;;;;;;;;;5098009;28;20210;-74
2023/09/09 10:25:18;;;;;;;5.30;3.38;;;;;;;;;;5097900;28;20710;-74
2023/09/09 10:27:48;;;;;;;4.10;3.72;;;;;;;;;;5098077;28;20573;-75
2023/09/09 10:30:17;;;;;;;3.78;3.47;;;;;;;;;;5098128;28;20257;-74
2023/09/09 10:32:45;;;;;;;3.75;3.45;;;;;;;;;;5098204;28;20212;-71
2023/09/09 10:35:15;;;;;;;11.00;3.80;;;;;;;;;;5097942;28;20274;-72
2023/09/09 10:37:46;;;;;;;4.68;3.65;;;;;;;;;;5098010;28;20259;-73
2023/09/09 10:40:15;;;;;;;5.15;4.03;;;;;;;;;;5097762;28;20221;-73
2023/09/09 10:42:44;;;;;;;5.55;3.70;;;;;;;;;;5098058;28;20206;-73
2023/09/09 10:45:28;;;;;;;5.55;3.88;;;;;;;;;;5088515;28;20284;-74
2023/09/09 10:47:57;;;;;;;5.15;3.92;;;;;;;;;;5098061;28;20209;-74
2023/09/09 10:50:40;;;;;;;4.38;3.65;;;;;;;;;;5097733;28;20308;-74
2023/09/09 10:53:27;;;;;;;6.15;3.67;;;;;;;;;;5097558;28;20227;-74
2023/09/09 10:55:56;;;;;;;3.97;3.67;;;;;;;;;;5090788;28;20198;-73
2023/09/09 10:58:31;;;;;;;5.45;3.72;;;;;;;;;;5097641;28;20594;-73
2023/09/09 11:00:59;;;;;;;4.10;3.70;;;;;;;;;;5097555;28;20224;-73
2023/09/09 11:03:29;;;;;;;4.32;3.83;;;;;;;;;;5092021;28;20221;-74
2023/09/09 11:06:03;;;;;;;4.05;3.70;;;;;;;;;;5092250;28;20205;-74
2023/09/09 11:08:35;;;;;;;4.60;3.70;;;;;;;;;;5097622;28;20236;-76
2023/09/09 11:11:07;;;;;;;6.45;4.05;;;;;;;;;;5093982;28;20659;-74
2023/09/09 11:13:39;;;;;;;4.05;3.72;;;;;;;;;;5094095;28;20259;-74
2023/09/09 11:16:07;;;;;;;4.13;3.78;;;;;;;;;;5099482;28;20208;-75
2023/09/09 11:18:35;;;;;;;6.80;3.60;;;;;;;;;;5101690;28;20223;-74
2023/09/09 11:21:06;;;;;;;4.72;3.25;;;;;;;;;;5101123;28;20263;-74
2023/09/09 11:23:34;;;;;;;7.65;3.90;;;;;;;;;;5101186;28;20761;-74
2023/09/09 11:26:02;;;;;;;6.07;4.03;;;;;;;;;;5101076;28;20565;-74
2023/09/09 11:28:30;;;;;;;7.20;5.18;;;;;;;;;;5101261;28;20216;-73
2023/09/09 11:31:00;;;;;;;10.32;4.85;;;;;;;;;;5087743;28;20279;-72
2023/09/09 11:33:28;;;;;;;4.70;4.18;;;;;;;;;;5101323;28;20258;-73
2023/09/09 11:35:56;;;;;;;6.53;5.20;;;;;;;;;;5100993;28;20258;-74
2023/09/09 11:38:26;;;;;;;6.93;5.63;;;;;;;;;;5100800;28;20205;-74
2023/09/09 11:40:56;;;;;;;6.63;4.32;;;;;;;;;;5100882;28;20221;-73
2023/09/09 11:43:24;;;;;;;5.80;4.25;;;;;;;;;;5101051;28;20213;-73
2023/09/09 11:45:52;;;;;;;8.85;4.45;;;;;;;;;;5100770;28;20238;-73
2023/09/09 11:48:21;;;;;;;6.50;4.18;;;;;;;;;;5093507;28;20209;-74
2023/09/09 11:50:49;;;;;;;4.03;3.58;;;;;;;;;;5100966;28;20278;-73
2023/09/09 11:53:19;;;;;;;5.03;3.50;;;;;;;;;;5100557;28;20212;-73
2023/09/09 11:55:52;;;;;;;4.35;3.75;;;;;;;;;;5101010;28;20201;-72
2023/09/09 11:58:20;;;;;;;9.35;4.85;;;;;;;;;;5097404;28;20225;-73
2023/09/09 12:00:48;;;;;;;7.47;4.18;;;;;;;;;;5100468;28;20229;-73
2023/09/09 12:03:20;;;;;;;3.90;3.60;;;;;;;;;;5099680;28;20211;-71
2023/09/09 12:05:49;;;;;;;4.97;4.05;;;;;;;;;;5098481;28;20762;-73
2023/09/09 12:08:17;;;;;;;4.80;4.07;;;;;;;;;;5099833;28;20201;-72
2023/09/09 12:10:45;;;;;;;7.03;4.63;;;;;;;;;;5100426;28;20229;-73
2023/09/09 12:13:15;;;;;;;4.13;3.80;;;;;;;;;;5100371;28;20256;-72
2023/09/09 12:15:47;;;;;;;5.82;3.78;;;;;;;;;;5100191;28;20201;-72
2023/09/09 12:18:32;;;;;;;5.03;4.00;;;;;;;;;;5100502;28;20270;-73
2023/09/09 12:21:03;;;;;;;4.50;3.50;;;;;;;;;;5100282;28;20283;-73
2023/09/09 12:23:32;;;;;;;5.25;4.22;;;;;;;;;;5092420;28;20216;-73
2023/09/09 12:26:12;;;;;;;6.95;4.30;;;;;;;;;;5099024;28;20710;-73
2023/09/09 12:28:43;;;;;;;4.60;4.20;;;;;;;;;;5098483;28;20657;-74
2023/09/09 12:31:11;;;;;;;4.10;3.78;;;;;;;;;;5099566;28;20316;-73
2023/09/09 12:33:40;;;;;;;4.38;3.97;;;;;;;;;;5100310;28;20287;-72
2023/09/09 12:36:15;;;;;;;3.65;3.42;;;;;;;;;;5100055;28;20611;-74
2023/09/09 12:38:44;;;;;;;7.00;3.58;;;;;;;;;;5098955;28;20205;-71
2023/09/09 12:41:17;;;;;;;5.03;3.70;;;;;;;;;;5099905;28;20221;-71
2023/09/09 12:43:46;;;;;;;4.70;3.50;;;;;;;;;;5099983;28;20209;-72
2023/09/09 12:46:15;;;;;;;4.50;3.67;;;;;;;;;;5099440;28;20225;-69
2023/09/09 12:48:53;;;;;;;4.40;3.72;;;;;;;;;;5099164;28;20233;-71
2023/09/09 12:51:22;;;;;;;4.85;3.95;;;;;;;;;;5099138;28;20223;-71
2023/09/09 12:53:50;;;;;;;4.28;3.42;;;;;;;;;;5099135;28;20534;-70
2023/09/09 12:56:18;;;;;;;7.68;4.30;;;;;;;;;;5097909;28;20194;-72
2023/09/09 12:58:48;;;;;;;4.85;3.97;;;;;;;;;;5094917;28;20229;-72
2023/09/09 13:01:16;;;;;;;8.30;4.07;;;;;;;;;;5096690;28;20275;-72
2023/09/09 13:03:44;;;;;;;4.80;4.20;;;;;;;;;;5093773;28;20288;-73
2023/09/09 13:06:12;;;;;;;4.18;3.85;;;;;;;;;;5098765;28;20304;-73
2023/09/09 13:09:11;;;;;;;3.95;3.60;;;;;;;;;;5089394;28;20659;-72
2023/09/09 13:11:39;;;;;;;4.13;3.70;;;;;;;;;;5098705;28;20241;-72
2023/09/09 13:14:09;;;;;;;4.80;3.90;;;;;;;;;;5099306;28;20213;-71
2023/09/09 13:16:52;;;;;;;5.43;4.63;;;;;;;;;;5094661;28;20707;-73
2023/09/09 13:19:20;;;;;;;4.95;4.53;;;;;;;;;;5091898;28;20237;-72
2023/09/09 13:21:49;;;;;;;6.53;3.72;;;;;;;;;;5098888;28;20217;-70
2023/09/09 13:24:17;;;;;;;3.97;3.67;;;;;;;;;;5089348;28;20210;-69
2023/09/09 13:26:45;;;;;;;5.78;4.20;;;;;;;;;;5086031;28;20237;-70
2023/09/09 13:29:14;;;;;;;4.18;3.78;;;;;;;;;;5098844;28;20612;-70
2023/09/09 13:31:45;;;;;;;4.07;3.67;;;;;;;;;;5099206;28;20225;-71
2023/09/09 13:34:13;;;;;;;5.03;3.80;;;;;;;;;;5099139;28;20209;-69
2023/09/09 13:36:41;;;;;;;4.28;3.90;;;;;;;;;;5098188;28;20686;-71
2023/09/09 13:39:09;;;;;;;4.22;3.83;;;;;;;;;;5098854;28;20616;-70
2023/09/09 13:41:37;;;;;;;5.97;3.92;;;;;;;;;;5098747;28;20221;-70
2023/09/09 13:44:06;;;;;;;4.63;4.18;;;;;;;;;;5098831;28;20221;-70
2023/09/09 13:46:35;;;;;;;4.25;3.85;;;;;;;;;;5098838;28;20244;-69
2023/09/09 13:49:03;;;;;;;4.28;3.97;;;;;;;;;;5098678;28;20741;-70
2023/09/09 13:51:31;;;;;;;4.72;3.75;;;;;;;;;;5098778;28;20282;-70
2023/09/09 13:53:59;;;;;;;4.65;4.03;;;;;;;;;;5098747;28;20239;-71
2023/09/09 13:56:27;;;;;;;5.03;4.13;;;;;;;;;;5090073;28;20199;-71
2023/09/09 13:58:55;;;;;;;4.63;4.18;;;;;;;;;;5098346;28;20758;-71
2023/09/09 14:01:24;;;;;;;4.63;3.92;;;;;;;;;;5098207;28;20221;-70
2023/09/09 14:03:54;;;;;;;4.45;3.75;;;;;;;;;;5098355;28;20623;-69
2023/09/09 14:06:22;;;;;;;9.70;4.30;;;;;;;;;;5097994;28;20587;-70
2023/09/09 14:08:51;;;;;;;4.90;4.20;;;;;;;;;;5098466;28;20206;-69
2023/09/09 14:11:18;;;;;;;4.32;3.83;;;;;;;;;;5098229;28;20278;-69
2023/09/09 14:13:47;;;;;;;7.25;4.55;;;;;;;;;;5098587;28;20287;-68
2023/09/09 14:16:14;;;;;;;3.92;3.53;;;;;;;;;;5097922;28;20206;-69
2023/09/09 14:18:43;;;;;;;5.03;3.85;;;;;;;;;;5098407;28;20218;-69
2023/09/09 14:21:12;;;;;;;4.65;3.80;;;;;;;;;;5098155;28;20232;-69
2023/09/09 14:23:41;;;;;;;3.92;3.53;;;;;;;;;;5097926;28;20204;-69
2023/09/09 14:26:09;;;;;;;4.93;4.00;;;;;;;;;;5097735;28;20742;-69
2023/09/09 14:28:37;;;;;;;5.00;3.50;;;;;;;;;;5098292;28;20212;-68
2023/09/09 14:31:05;;;;;;;4.28;3.90;;;;;;;;;;5094455;28;20217;-69
2023/09/09 14:33:33;;;;;;;4.25;3.83;;;;;;;;;;5091836;28;20237;-69
2023/09/09 14:36:02;;;;;;;4.15;3.75;;;;;;;;;;5098262;28;20605;-69
2023/09/09 14:38:31;;;;;;;5.22;3.83;;;;;;;;;;5097977;28;20201;-68
2023/09/09 14:40:59;;;;;;;3.70;3.45;;;;;;;;;;5098012;28;20232;-69
2023/09/09 14:43:27;;;;;;;5.55;4.05;;;;;;;;;;5098111;28;20222;-68
2023/09/09 14:45:55;;;;;;;4.40;4.00;;;;;;;;;;5097951;28;20233;-68
2023/09/09 14:48:23;;;;;;;3.72;3.42;;;;;;;;;;5097876;28;20209;-68
2023/09/09 14:50:53;;;;;;;5.55;4.15;;;;;;;;;;5097750;28;20637;-69
2023/09/09 14:53:21;;;;;;;4.95;3.80;;;;;;;;;;5097872;28;20212;-68
2023/09/09 14:55:50;;;;;;;3.85;3.42;;;;;;;;;;5098049;28;20205;-68